AAL1075 KCLT-KATL
Flight info
| Callsign | AAL1075 |
|---|---|
| Flight time | 0h 39m |
| Altitude | 26000 |
| Route | BOBZY5 TNSLY LEAVI OZZZI1 |
| Aircraft | A320/M-SDE3FGHIRWY/LB1 |
Departure
| Time | 2026-05-04 21:38 |
|---|---|
| Airport | Charlotte Douglas International Airport (KCLT) |
Arrival
| Time | 2026-05-04 22:18 |
|---|---|
| Airport | Hartsfield Jackson Atlanta International Airport (KATL) |
| Time | Latitude | Longitude | Altitude | Speed | Heading |
|---|---|---|---|---|---|
| 2026-05-04 21:17 | 35.21794 | -80.94158 | 731 ft | 0 kts | 284° |
| 2026-05-04 21:18 | 35.21793 | -80.94156 | 731 ft | 0 kts | 284° |
| 2026-05-04 21:26 | 35.21790 | -80.94141 | 731 ft | 4 kts | 284° |
| 2026-05-04 21:27 | 35.21784 | -80.94115 | 731 ft | 4 kts | 282° |
| 2026-05-04 21:27 | 35.21783 | -80.94084 | 732 ft | 4 kts | 245° |
| 2026-05-04 21:27 | 35.21799 | -80.94065 | 730 ft | 4 kts | 185° |
| 2026-05-04 21:27 | 35.21824 | -80.94066 | 730 ft | 2 kts | 175° |
| 2026-05-04 21:28 | 35.21825 | -80.94066 | 730 ft | 0 kts | 175° |
| 2026-05-04 21:30 | 35.21824 | -80.94066 | 730 ft | 1 kts | 175° |
| 2026-05-04 21:31 | 35.21784 | -80.94041 | 731 ft | 6 kts | 130° |
| 2026-05-04 21:31 | 35.21780 | -80.93989 | 732 ft | 7 kts | 73° |
| 2026-05-04 21:31 | 35.21814 | -80.93931 | 731 ft | 10 kts | 49° |
| 2026-05-04 21:32 | 35.21863 | -80.93863 | 731 ft | 12 kts | 48° |
| 2026-05-04 21:32 | 35.21923 | -80.93782 | 732 ft | 11 kts | 48° |
| 2026-05-04 21:32 | 35.21980 | -80.93716 | 733 ft | 11 kts | 22° |
| 2026-05-04 21:32 | 35.22065 | -80.93718 | 733 ft | 14 kts | 356° |
| 2026-05-04 21:33 | 35.22175 | -80.93726 | 733 ft | 17 kts | 355° |
| 2026-05-04 21:33 | 35.22298 | -80.93738 | 733 ft | 14 kts | 355° |
| 2026-05-04 21:33 | 35.22401 | -80.93748 | 733 ft | 15 kts | 356° |
| 2026-05-04 21:33 | 35.22488 | -80.93749 | 734 ft | 9 kts | 24° |
| 2026-05-04 21:34 | 35.22493 | -80.93744 | 734 ft | 0 kts | 38° |
| 2026-05-04 21:37 | 35.22500 | -80.93730 | 734 ft | 4 kts | 63° |
| 2026-05-04 21:37 | 35.22505 | -80.93668 | 735 ft | 11 kts | 99° |
| 2026-05-04 21:37 | 35.22430 | -80.93615 | 736 ft | 13 kts | 174° |
| 2026-05-04 21:38 | 35.22399 | -80.93611 | 736 ft | 20 kts | 175° |
| 2026-05-04 21:38 | 35.21950 | -80.93574 | 737 ft | 106 kts | 175° |
| 2026-05-04 21:38 | 35.20975 | -80.93477 | 780 ft | 167 kts | 178° |
| 2026-05-04 21:38 | 35.19793 | -80.93382 | 1574 ft | 175 kts | 179° |
| 2026-05-04 21:39 | 35.18539 | -80.93274 | 2473 ft | 184 kts | 179° |
| 2026-05-04 21:39 | 35.17204 | -80.93132 | 3140 ft | 202 kts | 176° |
| 2026-05-04 21:39 | 35.15744 | -80.92962 | 3494 ft | 221 kts | 176° |
| 2026-05-04 21:39 | 35.14128 | -80.92774 | 3876 ft | 245 kts | 177° |
| 2026-05-04 21:40 | 35.12385 | -80.92795 | 4491 ft | 255 kts | 194° |
| 2026-05-04 21:40 | 35.11267 | -80.93320 | 5049 ft | 257 kts | 212° |
| 2026-05-04 21:40 | 35.09988 | -80.94833 | 5850 ft | 260 kts | 240° |
| 2026-05-04 21:40 | 35.09450 | -80.96942 | 6677 ft | 265 kts | 268° |
| 2026-05-04 21:41 | 35.09654 | -80.99189 | 7517 ft | 268 kts | 279° |
| 2026-05-04 21:41 | 35.09976 | -81.01446 | 8408 ft | 270 kts | 279° |
| 2026-05-04 21:41 | 35.10306 | -81.03711 | 9274 ft | 273 kts | 279° |
| 2026-05-04 21:41 | 35.10634 | -81.05979 | 10076 ft | 276 kts | 279° |
| 2026-05-04 21:42 | 35.10972 | -81.08350 | 10509 ft | 294 kts | 279° |
| 2026-05-04 21:42 | 35.11330 | -81.10898 | 10842 ft | 313 kts | 279° |
| 2026-05-04 21:42 | 35.11700 | -81.13546 | 11451 ft | 321 kts | 279° |
| 2026-05-04 21:42 | 35.12089 | -81.16323 | 11652 ft | 343 kts | 279° |
| 2026-05-04 21:43 | 35.12504 | -81.19279 | 11792 ft | 363 kts | 279° |
| 2026-05-04 21:43 | 35.12940 | -81.22394 | 12000 ft | 379 kts | 279° |
| 2026-05-04 21:43 | 35.13384 | -81.25587 | 12644 ft | 381 kts | 279° |
| 2026-05-04 21:43 | 35.13825 | -81.28771 | 13479 ft | 379 kts | 279° |
| 2026-05-04 21:44 | 35.14262 | -81.31946 | 14255 ft | 378 kts | 279° |
| 2026-05-04 21:44 | 35.14698 | -81.35104 | 15010 ft | 376 kts | 279° |
| 2026-05-04 21:44 | 35.15129 | -81.38244 | 15766 ft | 374 kts | 279° |
| 2026-05-04 21:44 | 35.15557 | -81.41370 | 16532 ft | 373 kts | 279° |
| 2026-05-04 21:45 | 35.15986 | -81.44486 | 17309 ft | 371 kts | 280° |
| 2026-05-04 21:45 | 35.16412 | -81.47594 | 18084 ft | 370 kts | 280° |
| 2026-05-04 21:45 | 35.16834 | -81.50685 | 18796 ft | 368 kts | 280° |
| 2026-05-04 21:45 | 35.17250 | -81.53753 | 19537 ft | 364 kts | 280° |
| 2026-05-04 21:46 | 35.17661 | -81.56794 | 20310 ft | 360 kts | 280° |
| 2026-05-04 21:46 | 35.18066 | -81.59799 | 21093 ft | 356 kts | 279° |
| 2026-05-04 21:46 | 35.18255 | -81.62803 | 21861 ft | 354 kts | 269° |
| 2026-05-04 21:46 | 35.17961 | -81.65772 | 22624 ft | 352 kts | 259° |
| 2026-05-04 21:47 | 35.17274 | -81.68663 | 23144 ft | 358 kts | 255° |
| 2026-05-04 21:47 | 35.16537 | -81.71616 | 23424 ft | 367 kts | 255° |
| 2026-05-04 21:47 | 35.15792 | -81.74616 | 23831 ft | 371 kts | 256° |
| 2026-05-04 21:47 | 35.15043 | -81.77642 | 24258 ft | 373 kts | 256° |
| 2026-05-04 21:48 | 35.14292 | -81.80682 | 24684 ft | 375 kts | 256° |
| 2026-05-04 21:48 | 35.13536 | -81.83738 | 25112 ft | 377 kts | 256° |
| 2026-05-04 21:48 | 35.12775 | -81.86813 | 25531 ft | 378 kts | 256° |
| 2026-05-04 21:48 | 35.12012 | -81.89897 | 25905 ft | 380 kts | 256° |
| 2026-05-04 21:49 | 35.11247 | -81.92992 | 26012 ft | 383 kts | 256° |
| 2026-05-04 21:49 | 35.10466 | -81.96148 | 26031 ft | 394 kts | 256° |
| 2026-05-04 21:49 | 35.09660 | -81.99402 | 26032 ft | 405 kts | 256° |
| 2026-05-04 21:49 | 35.08833 | -82.02734 | 26030 ft | 415 kts | 255° |
| 2026-05-04 21:50 | 35.07987 | -82.06146 | 26030 ft | 424 kts | 255° |
| 2026-05-04 21:50 | 35.07126 | -82.09617 | 26029 ft | 431 kts | 255° |
| 2026-05-04 21:50 | 35.06250 | -82.13141 | 26029 ft | 437 kts | 255° |
| 2026-05-04 21:50 | 35.05363 | -82.16713 | 26031 ft | 441 kts | 255° |
| 2026-05-04 21:51 | 35.04481 | -82.20255 | 26028 ft | 442 kts | 255° |
| 2026-05-04 21:51 | 35.03571 | -82.23895 | 26030 ft | 443 kts | 255° |
| 2026-05-04 21:51 | 35.02683 | -82.27437 | 26044 ft | 443 kts | 255° |
| 2026-05-04 21:51 | 35.01707 | -82.31004 | 26030 ft | 445 kts | 250° |
| 2026-05-04 21:52 | 35.00266 | -82.34358 | 26020 ft | 448 kts | 243° |
| 2026-05-04 21:52 | 34.98691 | -82.37641 | 26046 ft | 449 kts | 243° |
| 2026-05-04 21:52 | 34.97110 | -82.40921 | 26040 ft | 450 kts | 242° |
| 2026-05-04 21:52 | 34.95518 | -82.44212 | 26050 ft | 451 kts | 242° |
| 2026-05-04 21:53 | 34.93928 | -82.47500 | 26044 ft | 451 kts | 242° |
| 2026-05-04 21:53 | 34.92334 | -82.50801 | 26031 ft | 451 kts | 242° |
| 2026-05-04 21:53 | 34.90745 | -82.54092 | 26033 ft | 451 kts | 242° |
| 2026-05-04 21:53 | 34.89135 | -82.57430 | 26035 ft | 451 kts | 242° |
| 2026-05-04 21:54 | 34.87545 | -82.60722 | 26034 ft | 451 kts | 242° |
| 2026-05-04 21:54 | 34.85912 | -82.63926 | 26031 ft | 452 kts | 240° |
| 2026-05-04 21:54 | 34.84150 | -82.67097 | 26040 ft | 453 kts | 238° |
| 2026-05-04 21:54 | 34.82287 | -82.70258 | 26032 ft | 453 kts | 237° |
| 2026-05-04 21:55 | 34.80443 | -82.73302 | 26041 ft | 453 kts | 237° |
| 2026-05-04 21:55 | 34.78567 | -82.76391 | 26030 ft | 453 kts | 237° |
| 2026-05-04 21:55 | 34.76716 | -82.79500 | 26024 ft | 453 kts | 237° |
| 2026-05-04 21:55 | 34.74911 | -82.82634 | 26035 ft | 452 kts | 238° |
| 2026-05-04 21:56 | 34.73142 | -82.85783 | 25821 ft | 451 kts | 238° |
| 2026-05-04 21:56 | 34.71385 | -82.88949 | 25576 ft | 452 kts | 239° |
| 2026-05-04 21:56 | 34.69630 | -82.92119 | 25334 ft | 453 kts | 238° |
| 2026-05-04 21:56 | 34.67862 | -82.95294 | 25094 ft | 454 kts | 238° |
| 2026-05-04 21:57 | 34.66082 | -82.98465 | 24850 ft | 455 kts | 238° |
| 2026-05-04 21:57 | 34.64287 | -83.01642 | 24617 ft | 456 kts | 238° |
| 2026-05-04 21:57 | 34.62484 | -83.04815 | 24380 ft | 457 kts | 238° |
| 2026-05-04 21:57 | 34.60670 | -83.07996 | 24151 ft | 458 kts | 238° |
| 2026-05-04 21:58 | 34.58855 | -83.11172 | 23932 ft | 459 kts | 238° |
| 2026-05-04 21:58 | 34.57038 | -83.14356 | 23709 ft | 459 kts | 238° |
| 2026-05-04 21:58 | 34.55220 | -83.17547 | 23453 ft | 459 kts | 238° |
| 2026-05-04 21:58 | 34.53419 | -83.20710 | 23159 ft | 452 kts | 238° |
| 2026-05-04 21:59 | 34.51636 | -83.23840 | 22890 ft | 450 kts | 238° |
| 2026-05-04 21:59 | 34.49860 | -83.26957 | 22622 ft | 450 kts | 238° |
| 2026-05-04 21:59 | 34.48081 | -83.30079 | 22353 ft | 450 kts | 238° |
| 2026-05-04 21:59 | 34.46291 | -83.33197 | 22091 ft | 451 kts | 237° |
| 2026-05-04 22:00 | 34.44495 | -83.36294 | 21810 ft | 444 kts | 237° |
| 2026-05-04 22:00 | 34.42747 | -83.39281 | 21605 ft | 424 kts | 237° |
| 2026-05-04 22:00 | 34.41070 | -83.42135 | 21474 ft | 406 kts | 237° |
| 2026-05-04 22:00 | 34.39471 | -83.44858 | 21349 ft | 389 kts | 237° |
| 2026-05-04 22:01 | 34.37936 | -83.47481 | 21224 ft | 375 kts | 237° |
| 2026-05-04 22:01 | 34.36456 | -83.50012 | 21103 ft | 361 kts | 237° |
| 2026-05-04 22:01 | 34.35035 | -83.52442 | 20713 ft | 347 kts | 237° |
| 2026-05-04 22:01 | 34.33656 | -83.54808 | 19952 ft | 342 kts | 237° |
| 2026-05-04 22:02 | 34.32296 | -83.57144 | 19186 ft | 337 kts | 237° |
| 2026-05-04 22:02 | 34.30951 | -83.59451 | 18427 ft | 334 kts | 237° |
| 2026-05-04 22:02 | 34.29618 | -83.61733 | 17562 ft | 331 kts | 235° |
| 2026-05-04 22:02 | 34.28071 | -83.63786 | 16738 ft | 330 kts | 224° |
| 2026-05-04 22:03 | 34.26367 | -83.65601 | 16194 ft | 321 kts | 223° |
| 2026-05-04 22:03 | 34.24722 | -83.67346 | 15789 ft | 308 kts | 223° |
| 2026-05-04 22:03 | 34.23138 | -83.69025 | 15402 ft | 298 kts | 224° |
| 2026-05-04 22:03 | 34.21609 | -83.70650 | 15030 ft | 288 kts | 224° |
| 2026-05-04 22:04 | 34.20130 | -83.72225 | 14671 ft | 280 kts | 224° |
| 2026-05-04 22:04 | 34.18669 | -83.73781 | 14313 ft | 281 kts | 223° |
| 2026-05-04 22:04 | 34.17193 | -83.75350 | 13950 ft | 283 kts | 223° |
| 2026-05-04 22:04 | 34.15710 | -83.76923 | 13555 ft | 284 kts | 223° |
| 2026-05-04 22:05 | 34.14221 | -83.78502 | 13181 ft | 285 kts | 223° |
| 2026-05-04 22:05 | 34.12729 | -83.80084 | 12807 ft | 286 kts | 223° |
| 2026-05-04 22:05 | 34.11234 | -83.81668 | 12428 ft | 286 kts | 222° |
| 2026-05-04 22:05 | 34.09738 | -83.83253 | 12060 ft | 286 kts | 222° |
| 2026-05-04 22:06 | 34.08246 | -83.84841 | 11994 ft | 287 kts | 222° |
| 2026-05-04 22:06 | 34.06694 | -83.86372 | 11997 ft | 289 kts | 212° |
| 2026-05-04 22:06 | 34.04947 | -83.87522 | 12000 ft | 291 kts | 209° |
| 2026-05-04 22:06 | 34.03162 | -83.88669 | 12001 ft | 291 kts | 209° |
| 2026-05-04 22:07 | 34.01371 | -83.89820 | 11783 ft | 290 kts | 209° |
| 2026-05-04 22:07 | 33.99595 | -83.90959 | 11531 ft | 288 kts | 209° |
| 2026-05-04 22:07 | 33.97832 | -83.92088 | 11286 ft | 286 kts | 208° |
| 2026-05-04 22:07 | 33.96080 | -83.93207 | 11041 ft | 284 kts | 208° |
| 2026-05-04 22:08 | 33.94335 | -83.94320 | 10800 ft | 283 kts | 208° |
| 2026-05-04 22:08 | 33.92598 | -83.95427 | 10559 ft | 281 kts | 208° |
| 2026-05-04 22:08 | 33.90883 | -83.96519 | 10320 ft | 275 kts | 208° |
| 2026-05-04 22:08 | 33.89208 | -83.97587 | 10080 ft | 269 kts | 208° |
| 2026-05-04 22:09 | 33.87607 | -83.98611 | 9885 ft | 251 kts | 208° |
| 2026-05-04 22:09 | 33.86124 | -83.99559 | 9759 ft | 232 kts | 207° |
| 2026-05-04 22:09 | 33.84752 | -84.00434 | 9627 ft | 216 kts | 207° |
| 2026-05-04 22:09 | 33.83434 | -84.01273 | 9495 ft | 213 kts | 208° |
| 2026-05-04 22:10 | 33.82119 | -84.02111 | 9202 ft | 217 kts | 208° |
| 2026-05-04 22:10 | 33.80770 | -84.02972 | 8931 ft | 219 kts | 207° |
| 2026-05-04 22:10 | 33.79387 | -84.03852 | 8806 ft | 228 kts | 207° |
| 2026-05-04 22:10 | 33.77981 | -84.04747 | 8686 ft | 229 kts | 207° |
| 2026-05-04 22:11 | 33.76575 | -84.05643 | 8547 ft | 229 kts | 207° |
| 2026-05-04 22:11 | 33.75172 | -84.06535 | 8423 ft | 229 kts | 208° |
| 2026-05-04 22:11 | 33.73764 | -84.07431 | 8227 ft | 229 kts | 207° |
| 2026-05-04 22:11 | 33.72361 | -84.08318 | 7936 ft | 228 kts | 207° |
| 2026-05-04 22:12 | 33.70960 | -84.09205 | 7619 ft | 228 kts | 207° |
| 2026-05-04 22:12 | 33.69560 | -84.10094 | 7286 ft | 229 kts | 207° |
| 2026-05-04 22:12 | 33.68152 | -84.10987 | 6941 ft | 230 kts | 207° |
| 2026-05-04 22:12 | 33.66740 | -84.11889 | 6598 ft | 230 kts | 210° |
| 2026-05-04 22:13 | 33.65551 | -84.13170 | 6214 ft | 233 kts | 235° |
| 2026-05-04 22:13 | 33.64957 | -84.14977 | 5820 ft | 236 kts | 261° |
| 2026-05-04 22:13 | 33.64915 | -84.16933 | 5437 ft | 240 kts | 268° |
| 2026-05-04 22:13 | 33.64929 | -84.18939 | 5067 ft | 239 kts | 268° |
| 2026-05-04 22:14 | 33.64938 | -84.20854 | 5009 ft | 217 kts | 267° |
| 2026-05-04 22:14 | 33.64941 | -84.22589 | 4932 ft | 200 kts | 268° |
| 2026-05-04 22:14 | 33.64943 | -84.24178 | 4813 ft | 182 kts | 267° |
| 2026-05-04 22:14 | 33.64946 | -84.25615 | 4682 ft | 161 kts | 266° |
| 2026-05-04 22:15 | 33.64947 | -84.26910 | 4423 ft | 151 kts | 266° |
| 2026-05-04 22:15 | 33.64947 | -84.28178 | 3990 ft | 151 kts | 266° |
| 2026-05-04 22:15 | 33.64948 | -84.29441 | 3632 ft | 150 kts | 266° |
| 2026-05-04 22:15 | 33.64948 | -84.30716 | 3167 ft | 155 kts | 267° |
| 2026-05-04 22:16 | 33.64950 | -84.32020 | 2723 ft | 158 kts | 267° |
| 2026-05-04 22:16 | 33.64955 | -84.33328 | 2392 ft | 153 kts | 267° |
| 2026-05-04 22:16 | 33.64948 | -84.34593 | 2081 ft | 150 kts | 266° |
| 2026-05-04 22:16 | 33.64945 | -84.35824 | 1773 ft | 146 kts | 268° |
| 2026-05-04 22:17 | 33.64963 | -84.37061 | 1601 ft | 148 kts | 267° |
| 2026-05-04 22:17 | 33.64955 | -84.38302 | 1446 ft | 149 kts | 268° |
| 2026-05-04 22:17 | 33.64960 | -84.39538 | 1268 ft | 146 kts | 268° |
| 2026-05-04 22:17 | 33.64951 | -84.40743 | 1091 ft | 144 kts | 269° |
| 2026-05-04 22:18 | 33.64952 | -84.41894 | 1006 ft | 121 kts | 271° |
| 2026-05-04 22:18 | 33.64954 | -84.42678 | 1007 ft | 57 kts | 270° |
| 2026-05-04 22:18 | 33.64952 | -84.43030 | 1006 ft | 32 kts | 267° |
| 2026-05-04 22:18 | 33.64891 | -84.43265 | 1007 ft | 22 kts | 240° |
| 2026-05-04 22:19 | 33.64849 | -84.43387 | 1006 ft | 16 kts | 261° |
| 2026-05-04 22:19 | 33.64844 | -84.43530 | 1007 ft | 18 kts | 270° |
| 2026-05-04 22:19 | 33.64843 | -84.43686 | 1007 ft | 20 kts | 269° |
| 2026-05-04 22:19 | 33.64842 | -84.43822 | 1006 ft | 16 kts | 264° |
| 2026-05-04 22:20 | 33.64789 | -84.43945 | 1006 ft | 17 kts | 255° |
| 2026-05-04 22:20 | 33.64784 | -84.44095 | 1006 ft | 19 kts | 271° |
| 2026-05-04 22:20 | 33.64781 | -84.44255 | 1006 ft | 18 kts | 255° |
| 2026-05-04 22:20 | 33.64722 | -84.44329 | 1006 ft | 10 kts | 204° |
| 2026-05-04 22:21 | 33.64638 | -84.44326 | 1006 ft | 15 kts | 157° |
| 2026-05-04 22:21 | 33.64575 | -84.44217 | 1006 ft | 20 kts | 86° |
| 2026-05-04 22:21 | 33.64529 | -84.44121 | 1006 ft | 12 kts | 169° |
| 2026-05-04 22:21 | 33.64443 | -84.44120 | 1006 ft | 13 kts | 181° |
| 2026-05-04 22:22 | 33.64352 | -84.44119 | 1006 ft | 12 kts | 187° |
| 2026-05-04 22:22 | 33.64329 | -84.44134 | 1006 ft | 1 kts | 227° |
| 2026-05-04 22:22 | 33.64328 | -84.44138 | 1006 ft | 1 kts | 236° |
| 2026-05-04 22:22 | 33.64325 | -84.44160 | 1006 ft | 8 kts | 266° |
| 2026-05-04 22:23 | 33.64324 | -84.44196 | 1006 ft | 0 kts | 270° |